createdAt,value
2019-02-05T00:02:11.128Z,24.05
2019-02-05T00:04:42.310Z,22.45
2019-02-05T00:07:12.796Z,22.30
2019-02-05T00:09:43.387Z,24.87
2019-02-05T00:12:13.874Z,24.25
2019-02-05T00:14:44.311Z,25.68
2019-02-05T00:17:14.704Z,25.12
2019-02-05T00:19:45.131Z,23.57
2019-02-05T00:22:15.653Z,25.37
2019-02-05T00:24:46.391Z,22.45
2019-02-05T00:27:16.931Z,22.93
2019-02-05T00:29:47.336Z,23.98
2019-02-05T00:32:19.497Z,22.60
2019-02-05T00:34:49.959Z,23.35
2019-02-05T00:37:20.731Z,23.73
2019-02-05T00:39:51.047Z,22.98
2019-02-05T00:42:21.479Z,23.27
2019-02-05T00:44:51.846Z,23.57
2019-02-05T00:47:22.622Z,25.30
2019-02-05T00:49:52.945Z,25.43
2019-02-05T00:52:23.287Z,25.25
2019-02-05T00:54:53.620Z,24.67
2019-02-05T00:57:24.086Z,24.98
2019-02-05T00:59:55.411Z,24.35
2019-02-05T01:02:26.468Z,24.63
2019-02-05T01:04:57.216Z,25.62
2019-02-05T01:07:28.142Z,23.80
2019-02-05T01:09:58.718Z,23.90
2019-02-05T01:12:29.490Z,25.32
2019-02-05T01:15:00.443Z,25.65
2019-02-05T01:17:31.122Z,25.17
2019-02-05T01:20:01.446Z,25.12
2019-02-05T01:22:31.918Z,25.00
2019-02-05T01:25:02.355Z,26.42
2019-02-05T01:27:32.988Z,25.85
2019-02-05T01:30:04.504Z,26.75
2019-02-05T01:32:34.830Z,27.00
2019-02-05T01:35:05.762Z,26.12
2019-02-05T01:37:38.435Z,27.32
2019-02-05T01:40:10.678Z,26.48
2019-02-05T01:42:41.243Z,24.80
2019-02-05T01:45:14.206Z,25.37
2019-02-05T01:47:44.904Z,25.97
2019-02-05T01:50:25.959Z,24.37
2019-02-05T01:52:57.461Z,25.60
2019-02-05T01:55:28.938Z,25.92
2019-02-05T01:57:59.327Z,26.00
2019-02-05T02:00:32.449Z,25.77
2019-02-05T02:03:03.043Z,26.52
2019-02-05T02:05:33.489Z,26.20
2019-02-05T02:08:04.350Z,27.10
2019-02-05T02:10:34.780Z,27.75
2019-02-05T02:13:05.601Z,27.75
2019-02-05T02:15:35.925Z,28.05
2019-02-05T02:18:06.518Z,28.50
2019-02-05T02:20:39.128Z,27.48
2019-02-05T02:23:09.579Z,28.12
2019-02-05T02:25:39.982Z,29.82
2019-02-05T02:28:10.631Z,28.40
2019-02-05T02:30:41.188Z,28.75
2019-02-05T02:33:11.744Z,29.65
2019-02-05T02:35:42.212Z,28.57
2019-02-05T02:38:12.591Z,30.37
2019-02-05T02:40:43.175Z,28.85
2019-02-05T02:43:13.503Z,29.18
2019-02-05T02:45:43.898Z,30.37
2019-02-05T02:48:14.715Z,30.25
2019-02-05T02:50:45.122Z,28.95
2019-02-05T02:53:15.603Z,29.72
2019-02-05T02:55:46.760Z,30.25
2019-02-05T02:58:17.081Z,29.85
2019-02-05T03:00:49.213Z,30.17
2019-02-05T03:03:19.672Z,30.15
2019-02-05T03:05:50.043Z,31.97
2019-02-05T03:08:20.512Z,33.08
2019-02-05T03:10:51.164Z,32.73
2019-02-05T03:13:21.524Z,32.98
2019-02-05T03:15:52.212Z,33.83
2019-02-05T03:18:22.589Z,31.73
2019-02-05T03:20:53.149Z,34.98
2019-02-05T03:23:23.482Z,32.17
2019-02-05T03:25:55.770Z,32.88
2019-02-05T03:28:26.283Z,31.62
2019-02-05T03:30:56.725Z,33.23
2019-02-05T03:33:27.109Z,31.48
2019-02-05T03:35:57.618Z,32.42
2019-02-05T03:38:28.078Z,32.93
2019-02-05T03:41:03.058Z,33.05
2019-02-05T03:43:35.780Z,33.02
2019-02-05T03:46:11.211Z,32.53
2019-02-05T03:48:43.951Z,33.45
2019-02-05T03:52:01.128Z,31.85
2019-02-05T03:55:07.814Z,32.58
2019-02-05T03:58:18.076Z,32.67
2019-02-05T04:01:44.541Z,32.63
2019-02-05T04:04:33.953Z,31.25
2019-02-05T04:07:36.031Z,33.28
2019-02-05T04:10:59.830Z,30.43
2019-02-05T04:13:52.560Z,31.37
2019-02-05T04:16:55.776Z,32.65
2019-02-05T04:19:55.747Z,33.00
2019-02-05T04:23:09.764Z,32.23
2019-02-05T04:26:29.095Z,33.05
2019-02-05T04:29:47.424Z,32.73
2019-02-05T04:32:42.818Z,33.28
2019-02-05T04:35:55.283Z,31.52
2019-02-05T04:38:47.422Z,32.63
2019-02-05T04:41:59.671Z,32.15
2019-02-05T04:44:52.212Z,33.45
2019-02-05T04:48:02.107Z,33.18
2019-02-05T04:50:48.847Z,31.12
2019-02-05T04:53:39.065Z,31.00
2019-02-05T04:56:50.900Z,30.75
2019-02-05T04:59:51.315Z,31.82
2019-02-05T05:03:12.141Z,32.73
2019-02-05T05:05:59.929Z,30.57
2019-02-05T05:08:46.759Z,31.42
2019-02-05T05:11:17.357Z,31.40
2019-02-05T05:13:48.116Z,31.50
2019-02-05T05:16:18.715Z,30.95
2019-02-05T05:18:49.094Z,30.52
2019-02-05T05:21:20.951Z,30.68
2019-02-05T05:23:51.655Z,30.48
2019-02-05T05:26:22.131Z,30.15
2019-02-05T05:28:52.938Z,31.02
2019-02-05T05:31:23.922Z,30.08
2019-02-05T05:33:54.762Z,30.88
2019-02-05T05:36:25.180Z,30.55
2019-02-05T05:38:55.647Z,29.75
2019-02-05T05:41:26.788Z,29.75
2019-02-05T05:46:28.507Z,29.45
2019-02-05T05:48:59.043Z,30.80
2019-02-05T05:51:29.498Z,30.02
2019-02-05T05:54:00.136Z,30.43
2019-02-05T05:56:30.479Z,30.52
2019-02-05T05:59:01.063Z,30.77
2019-02-05T06:01:31.474Z,30.77
2019-02-05T06:04:03.366Z,31.35
2019-02-05T06:06:34.125Z,30.97
2019-02-05T06:09:07.663Z,30.50
2019-02-05T06:11:38.221Z,31.20
2019-02-05T06:14:08.623Z,31.35
2019-02-05T06:16:39.078Z,30.70
2019-02-05T06:19:09.624Z,31.40
2019-02-05T06:21:40.046Z,32.35
2019-02-05T06:24:10.550Z,32.05
2019-02-05T06:26:40.953Z,32.15
2019-02-05T06:29:11.473Z,31.52
2019-02-05T06:31:42.171Z,32.65
2019-02-05T06:34:12.795Z,31.70
2019-02-05T06:36:45.183Z,33.45
2019-02-05T06:39:15.542Z,31.30
2019-02-05T06:41:46.197Z,31.87
2019-02-05T06:44:16.663Z,34.13
2019-02-05T06:46:47.027Z,33.28
2019-02-05T06:49:17.418Z,35.30
2019-02-05T06:51:48.200Z,34.45
2019-02-05T06:54:18.605Z,35.63
2019-02-05T06:56:49.059Z,35.85
2019-02-05T06:59:19.501Z,35.30
2019-02-05T07:01:50.549Z,35.73
2019-02-05T07:04:22.791Z,36.25
2019-02-05T07:06:53.246Z,37.95
2019-02-05T07:09:23.941Z,37.10
2019-02-05T07:11:54.450Z,37.30
2019-02-05T07:14:25.172Z,37.78
2019-02-05T07:16:58.370Z,38.20
2019-02-05T07:19:29.161Z,38.65
2019-02-05T07:21:59.708Z,37.63
2019-02-05T07:24:30.266Z,39.05
2019-02-05T07:27:00.810Z,39.58
2019-02-05T07:29:31.328Z,39.98
2019-02-05T07:32:03.810Z,39.95
2019-02-05T07:34:35.342Z,39.65
2019-02-05T07:37:06.190Z,38.10
2019-02-05T07:39:36.626Z,36.42
2019-02-05T07:42:07.272Z,36.63
2019-02-05T07:44:39.976Z,36.63
2019-02-05T07:47:09.837Z,34.73
2019-02-05T07:49:40.588Z,30.55
2019-02-05T07:52:11.150Z,32.15
2019-02-05T07:54:41.923Z,30.08
2019-02-05T07:57:12.376Z,30.43
2019-02-05T07:59:42.797Z,32.45
2019-02-05T08:02:14.129Z,30.65
2019-02-05T08:04:47.326Z,27.10
2019-02-05T08:07:20.000Z,20.65
2019-02-05T08:09:57.093Z,22.35
2019-02-05T08:12:29.118Z,20.68
2019-02-05T08:14:59.873Z,22.35
2019-02-05T08:17:33.345Z,24.10
2019-02-05T08:20:05.300Z,22.48
2019-02-05T08:22:38.022Z,22.07
2019-02-05T08:25:11.481Z,21.73
2019-02-05T08:27:43.845Z,21.82
2019-02-05T08:30:19.302Z,22.65
2019-02-05T08:32:52.769Z,21.10
2019-02-05T08:35:26.601Z,20.35
2019-02-05T08:37:59.913Z,22.98
2019-02-05T08:40:33.533Z,24.47
2019-02-05T08:43:07.119Z,20.90
2019-02-05T08:45:37.978Z,24.23
2019-02-05T08:48:09.643Z,22.48
2019-02-05T08:50:46.730Z,22.37
2019-02-05T08:53:19.549Z,22.95
2019-02-05T08:55:52.283Z,22.65
2019-02-05T08:58:30.744Z,22.40
2019-02-05T09:00:56.393Z,22.52
2019-02-05T09:03:26.844Z,22.52
2019-02-05T09:05:59.157Z,21.42
2019-02-05T09:08:30.609Z,22.10
2019-02-05T09:11:01.633Z,22.50
2019-02-05T09:13:33.464Z,21.45
2019-02-05T09:16:04.752Z,22.82
2019-02-05T09:18:36.465Z,24.92
2019-02-05T09:21:10.226Z,24.92
2019-02-05T09:23:43.740Z,22.58
2019-02-05T09:26:15.582Z,23.75
2019-02-05T09:28:48.385Z,20.62
2019-02-05T09:31:19.097Z,21.75
2019-02-05T09:33:51.940Z,20.52
2019-02-05T09:36:22.849Z,23.47
2019-02-05T09:39:05.790Z,22.07
2019-02-05T09:41:37.098Z,21.25
2019-02-05T09:44:10.949Z,21.07
2019-02-05T09:46:42.938Z,21.05
2019-02-05T09:49:13.637Z,22.48
2019-02-05T09:51:44.345Z,25.43
2019-02-05T09:54:16.401Z,25.05
2019-02-05T09:56:48.222Z,23.57
2019-02-05T09:59:21.001Z,28.65
2019-02-05T10:01:57.127Z,27.70
2019-02-05T10:04:29.496Z,20.45
2019-02-05T10:07:03.525Z,19.10
2019-02-05T10:09:36.162Z,20.70
2019-02-05T10:12:09.483Z,20.82
2019-02-05T10:14:40.702Z,19.57
2019-02-05T10:17:13.834Z,20.57
2019-02-05T10:19:46.757Z,21.25
2019-02-05T10:22:20.000Z,21.57
2019-02-05T10:24:54.633Z,23.35
2019-02-05T10:27:47.794Z,22.73
2019-02-05T10:30:22.943Z,24.80
2019-02-05T10:32:54.954Z,24.98
2019-02-05T10:35:30.029Z,23.70
2019-02-05T10:38:02.229Z,23.73
2019-02-05T10:40:35.871Z,23.22
2019-02-05T10:43:08.646Z,23.45
2019-02-05T10:45:41.216Z,22.77
2019-02-05T10:48:14.021Z,23.57
2019-02-05T10:50:47.161Z,22.98
2019-02-05T10:53:19.007Z,22.20
2019-02-05T10:55:53.329Z,22.50
2019-02-05T10:58:26.058Z,23.30
2019-02-05T11:00:57.549Z,21.25
2019-02-05T11:03:30.762Z,22.45
2019-02-05T11:06:03.445Z,22.50
2019-02-05T11:08:33.829Z,22.00
2019-02-05T11:11:07.769Z,22.37
2019-02-05T11:13:41.033Z,21.68
2019-02-05T11:16:12.133Z,22.87
2019-02-05T11:18:44.102Z,23.07
2019-02-05T11:21:15.490Z,23.12
2019-02-05T11:23:47.753Z,19.70
2019-02-05T11:26:21.166Z,22.73
2019-02-05T11:28:52.881Z,19.45
2019-02-05T11:31:23.685Z,22.40
2019-02-05T11:33:54.588Z,22.20
2019-02-05T11:36:27.993Z,22.87
2019-02-05T11:39:00.421Z,24.07
2019-02-05T11:41:34.130Z,25.25
2019-02-05T11:44:05.732Z,23.10
2019-02-05T11:46:37.897Z,25.20
2019-02-05T11:49:09.666Z,22.55
2019-02-05T11:51:43.473Z,24.75
2019-02-05T11:54:14.873Z,24.72
2019-02-05T11:57:07.768Z,22.77
2019-02-05T11:59:39.430Z,24.27
2019-02-05T12:02:13.595Z,25.70
2019-02-05T12:04:46.461Z,27.58
2019-02-05T12:07:18.353Z,27.58
2019-02-05T12:09:48.854Z,27.93
2019-02-05T12:12:21.011Z,21.25
2019-02-05T12:14:51.489Z,25.85
2019-02-05T12:17:22.667Z,25.43
2019-02-05T12:19:55.620Z,27.35
2019-02-05T12:22:25.219Z,26.60
2019-02-05T12:24:55.641Z,24.63
2019-02-05T12:27:26.209Z,21.30
2019-02-05T12:29:56.671Z,24.35
2019-02-05T12:32:27.124Z,21.55
2019-02-05T12:34:57.705Z,21.62
2019-02-05T12:37:29.027Z,26.70
2019-02-05T12:39:59.506Z,30.08
2019-02-05T12:42:30.190Z,26.82
2019-02-05T12:45:00.973Z,27.07
2019-02-05T12:47:32.170Z,27.67
2019-02-05T12:50:02.717Z,29.40
2019-02-05T12:52:33.281Z,28.67
2019-02-05T12:55:13.159Z,29.50
2019-02-05T12:57:36.837Z,29.10
2019-02-05T13:00:14.746Z,29.60
2019-02-05T13:02:45.302Z,27.20
2019-02-05T13:05:16.633Z,29.82
2019-02-05T13:07:47.037Z,31.05
2019-02-05T13:10:19.736Z,29.50
2019-02-05T13:12:52.036Z,28.87
2019-02-05T13:17:52.473Z,29.98
2019-02-05T13:20:25.443Z,31.85
2019-02-05T13:22:56.489Z,32.73
2019-02-05T13:25:29.357Z,31.30
2019-02-05T13:28:00.221Z,32.05
2019-02-05T13:30:32.058Z,32.30
2019-02-05T13:33:03.630Z,31.02
2019-02-05T13:35:34.803Z,31.17
2019-02-05T13:38:05.834Z,29.75
2019-02-05T13:40:37.301Z,30.65
2019-02-05T13:43:07.831Z,29.98
2019-02-05T13:45:39.296Z,27.80
2019-02-05T13:48:11.276Z,28.45
2019-02-05T13:50:41.892Z,28.60
2019-02-05T13:53:12.367Z,27.73
2019-02-05T13:55:44.581Z,26.15
2019-02-05T13:58:15.453Z,29.10
2019-02-05T14:00:47.989Z,28.57
2019-02-05T14:03:18.617Z,28.05
2019-02-05T14:05:49.065Z,31.05
2019-02-05T14:08:19.575Z,32.20
2019-02-05T14:10:50.098Z,29.85
2019-02-05T14:13:21.842Z,31.55
2019-02-05T14:15:53.455Z,30.57
2019-02-05T14:18:24.013Z,30.10
2019-02-05T14:20:54.472Z,29.85
2019-02-05T14:23:25.948Z,29.37
2019-02-05T14:25:56.450Z,30.68
2019-02-05T14:28:28.704Z,28.27
2019-02-05T14:31:01.194Z,32.70
2019-02-05T14:33:31.984Z,31.15
2019-02-05T14:36:02.564Z,30.97
2019-02-05T14:38:34.730Z,30.25
2019-02-05T14:41:05.513Z,30.20
2019-02-05T14:43:36.185Z,31.62
2019-02-05T14:46:06.878Z,30.60
2019-02-05T14:48:38.378Z,29.00
2019-02-05T14:51:11.488Z,29.77
2019-02-05T14:53:41.959Z,31.45
2019-02-05T14:56:12.467Z,30.62
2019-02-05T14:58:43.253Z,29.50
2019-02-05T15:01:13.680Z,30.92
2019-02-05T15:03:44.472Z,30.60
2019-02-05T15:06:14.865Z,30.88
2019-02-05T15:08:45.189Z,30.95
2019-02-05T15:11:28.003Z,30.32
2019-02-05T15:13:59.354Z,28.62
2019-02-05T15:16:29.703Z,30.15
2019-02-05T15:19:00.537Z,29.42
2019-02-05T15:21:30.965Z,30.20
2019-02-05T15:24:01.438Z,32.08
2019-02-05T15:26:31.901Z,31.70
2019-02-05T15:29:02.229Z,30.55
2019-02-05T15:31:32.973Z,30.72
2019-02-05T15:34:07.907Z,31.10
2019-02-05T15:36:42.066Z,30.60
2019-02-05T15:39:14.525Z,30.40
2019-02-05T15:41:45.097Z,29.72
2019-02-05T15:44:15.925Z,27.52
2019-02-05T15:46:46.514Z,29.60
2019-02-05T15:49:17.073Z,27.17
2019-02-05T15:51:47.641Z,27.32
2019-02-05T15:54:17.954Z,26.70
2019-02-05T15:56:48.392Z,28.75
2019-02-05T15:59:18.808Z,26.62
2019-02-05T16:01:49.318Z,26.07
2019-02-05T16:04:19.771Z,24.45
2019-02-05T16:06:50.125Z,24.75
2019-02-05T16:09:20.801Z,24.40
2019-02-05T16:11:54.173Z,25.32
2019-02-05T16:14:25.269Z,26.50
2019-02-05T16:16:55.873Z,27.00
2019-02-05T16:19:26.869Z,29.72
2019-02-05T16:22:04.295Z,27.05
2019-02-05T16:24:42.825Z,29.32
2019-02-05T16:27:17.874Z,28.12
2019-02-05T16:29:48.569Z,23.87
2019-02-05T16:32:19.024Z,27.27
2019-02-05T16:34:49.909Z,23.95
2019-02-05T16:37:20.317Z,25.88
2019-02-05T16:39:50.841Z,26.27
2019-02-05T16:42:21.361Z,27.77
2019-02-05T16:44:52.418Z,27.73
2019-02-05T16:47:22.945Z,29.25
2019-02-05T16:49:53.366Z,31.90
2019-02-05T16:52:23.810Z,32.63
2019-02-05T16:54:54.277Z,32.78
2019-02-05T16:57:24.802Z,31.62
2019-02-05T16:59:55.262Z,32.78
2019-02-05T17:02:28.964Z,32.67
2019-02-05T17:04:58.430Z,33.48
2019-02-05T17:07:28.966Z,32.67
2019-02-05T17:09:59.649Z,33.53
2019-02-05T17:12:31.288Z,32.05
2019-02-05T17:15:02.313Z,32.93
2019-02-05T17:17:32.749Z,33.42
2019-02-05T17:20:05.413Z,32.53
2019-02-05T17:22:36.073Z,31.20
2019-02-05T17:25:07.417Z,28.85
2019-02-05T17:27:38.065Z,30.72
2019-02-05T17:30:12.349Z,29.40
2019-02-05T17:32:42.809Z,30.35
2019-02-05T17:35:13.902Z,30.08
2019-02-05T17:37:44.441Z,30.15
2019-02-05T17:40:17.248Z,30.23
2019-02-05T17:42:47.892Z,30.52
2019-02-05T17:45:26.772Z,31.20
2019-02-05T17:47:58.006Z,29.95
2019-02-05T17:50:28.509Z,31.02
2019-02-05T17:52:59.328Z,28.52
2019-02-05T17:55:29.941Z,31.62
2019-02-05T17:58:00.636Z,28.73
2019-02-05T18:00:42.357Z,33.33
2019-02-05T18:03:13.825Z,28.55
2019-02-05T18:05:44.588Z,31.82
2019-02-05T18:08:15.027Z,30.40
2019-02-05T18:10:45.677Z,30.35
2019-02-05T18:13:16.573Z,27.67
2019-02-05T18:15:47.078Z,29.40
2019-02-05T18:18:18.529Z,29.07
2019-02-05T18:20:50.353Z,31.48
2019-02-05T18:23:20.954Z,31.75
2019-02-05T18:25:52.677Z,30.02
2019-02-05T18:28:23.446Z,30.10
2019-02-05T18:30:54.659Z,31.17
2019-02-05T18:33:25.156Z,30.08
2019-02-05T18:35:55.725Z,29.32
2019-02-05T18:38:26.216Z,34.35
2019-02-05T18:40:56.814Z,30.25
2019-02-05T18:43:27.476Z,31.48
2019-02-05T18:45:57.849Z,33.45
2019-02-05T18:48:28.303Z,30.55
2019-02-05T18:50:58.906Z,31.07
2019-02-05T18:53:29.799Z,30.95
2019-02-05T18:56:00.958Z,30.00
2019-02-05T18:58:31.746Z,27.52
2019-02-05T19:01:02.396Z,30.00
2019-02-05T19:03:33.016Z,28.85
2019-02-05T19:06:03.457Z,28.92
2019-02-05T19:08:33.918Z,29.50
2019-02-05T19:11:04.529Z,29.50
2019-02-05T19:13:34.901Z,31.75
2019-02-05T19:16:05.707Z,29.45
2019-02-05T19:18:36.525Z,28.47
2019-02-05T19:21:07.682Z,29.65
2019-02-05T19:23:38.207Z,29.85
2019-02-05T19:26:12.652Z,30.43
2019-02-05T19:28:43.767Z,31.12
2019-02-05T19:31:23.712Z,31.35
2019-02-05T19:33:54.189Z,32.48
2019-02-05T19:36:24.765Z,31.75
2019-02-05T19:38:55.239Z,31.65
2019-02-05T19:41:25.778Z,33.73
2019-02-05T19:43:56.225Z,39.45
2019-02-05T19:46:44.677Z,35.28
2019-02-05T19:49:22.152Z,34.92
2019-02-05T19:51:52.769Z,37.85
2019-02-05T19:54:23.649Z,35.80
2019-02-05T19:56:54.212Z,36.65
2019-02-05T19:59:25.265Z,38.88
2019-02-05T20:01:55.881Z,35.90
2019-02-05T20:04:26.629Z,38.23
2019-02-05T20:06:57.337Z,38.80
2019-02-05T20:09:27.891Z,36.73
2019-02-05T20:11:58.418Z,37.33
2019-02-05T20:14:28.863Z,38.45
2019-02-05T20:16:59.466Z,38.23
2019-02-05T20:19:30.485Z,38.50
2019-02-05T20:22:01.034Z,36.40
2019-02-05T20:24:35.369Z,37.10
2019-02-05T20:27:06.097Z,36.60
2019-02-05T20:29:36.620Z,38.70
2019-02-05T20:32:07.437Z,37.50
2019-02-05T20:34:37.959Z,35.85
2019-02-05T20:37:08.469Z,36.45
2019-02-05T20:39:40.085Z,36.93
2019-02-05T20:42:10.662Z,37.90
2019-02-05T20:44:41.055Z,37.67
2019-02-05T20:47:11.525Z,38.33
2019-02-05T20:49:43.206Z,38.92
2019-02-05T20:52:13.750Z,38.90
2019-02-05T20:54:44.169Z,40.40
2019-02-05T20:57:14.621Z,37.90
2019-02-05T20:59:45.949Z,38.75
2019-02-05T21:02:16.648Z,37.93
2019-02-05T21:04:48.673Z,35.90
2019-02-05T21:07:19.389Z,35.98
2019-02-05T21:09:49.873Z,35.63
2019-02-05T21:12:20.339Z,33.60
2019-02-05T21:14:50.953Z,34.92
2019-02-05T21:17:21.282Z,34.88
2019-02-05T21:19:52.201Z,33.95
2019-02-05T21:22:22.570Z,33.50
2019-02-05T21:24:54.529Z,34.33
2019-02-05T21:27:24.987Z,33.53
2019-02-05T21:29:56.374Z,37.95
2019-02-05T21:32:26.978Z,37.80
2019-02-05T21:34:57.542Z,36.03
2019-02-05T21:37:28.008Z,37.58
2019-02-05T21:40:02.574Z,35.35
2019-02-05T21:42:32.685Z,32.75
2019-02-05T21:45:03.597Z,37.00
2019-02-05T21:47:34.077Z,34.95
2019-02-05T21:50:07.223Z,33.98
2019-02-05T21:52:37.726Z,32.28
2019-02-05T21:55:09.796Z,32.38
2019-02-05T21:57:40.553Z,33.80
2019-02-05T22:00:23.218Z,32.38
2019-02-05T22:02:54.008Z,31.30
2019-02-05T22:05:26.001Z,31.00
2019-02-05T22:07:56.651Z,31.68
2019-02-05T22:10:27.217Z,29.23
2019-02-05T22:12:58.145Z,29.20
2019-02-05T22:15:29.002Z,30.02
2019-02-05T22:17:59.712Z,30.43
2019-02-05T22:20:30.665Z,30.43
2019-02-05T22:23:01.411Z,28.27
2019-02-05T22:25:33.387Z,33.38
2019-02-05T22:28:04.560Z,38.42
2019-02-05T22:30:36.215Z,31.85
2019-02-05T22:33:08.368Z,32.50
2019-02-05T22:35:39.327Z,34.00
2019-02-05T22:38:10.347Z,31.12
2019-02-05T22:40:41.412Z,29.27
2019-02-05T22:43:12.345Z,30.57
2019-02-05T22:45:42.929Z,30.88
2019-02-05T22:48:13.589Z,31.30
2019-02-05T22:50:44.050Z,30.37
2019-02-05T22:53:14.559Z,31.30
2019-02-05T22:55:45.063Z,30.02
2019-02-05T22:58:15.831Z,31.15
2019-02-05T23:01:01.980Z,30.35
2019-02-05T23:03:46.289Z,30.50
2019-02-05T23:06:51.605Z,30.55
2019-02-05T23:10:10.363Z,31.15
2019-02-05T23:13:06.147Z,31.02
2019-02-05T23:15:39.689Z,30.80
2019-02-05T23:18:10.679Z,30.85
2019-02-05T23:20:42.300Z,30.70
2019-02-05T23:23:32.110Z,29.50
2019-02-05T23:26:05.999Z,30.50
2019-02-05T23:28:36.727Z,28.12
2019-02-05T23:31:09.144Z,28.57
2019-02-05T23:33:39.459Z,28.17
2019-02-05T23:36:09.821Z,28.17
2019-02-05T23:38:42.245Z,28.75
2019-02-05T23:41:12.826Z,28.40
2019-02-05T23:43:43.452Z,28.47
2019-02-05T23:46:13.767Z,27.73
2019-02-05T23:48:44.080Z,29.23
2019-02-05T23:51:14.420Z,33.58
2019-02-05T23:53:44.754Z,29.98
2019-02-05T23:56:25.890Z,27.82
2019-02-05T23:58:47.830Z,28.55
